Time;durP1;ratioP1;P1;durP2;ratioP2;P2;SDS_P1;SDS_P2;PMS_P1;PMS_P2;Temp;Humidity;BMP_temperature;BMP_pressure;BME280_temperature;BME280_humidity;BME280_pressure;Samples;Min_cycle;Max_cycle;Signal;HPM_P1;HPM_P2
2022/01/06 00:02:26;;;;;;;11.77;3.17;;;4.50;99.90;;;;;;5074364;28;20450;-80
2022/01/06 00:04:53;;;;;;;13.10;2.87;;;4.40;99.90;;;;;;5062190;28;20455;-79
2022/01/06 00:07:20;;;;;;;16.03;3.60;;;4.30;99.90;;;;;;5063103;28;20515;-80
2022/01/06 00:09:49;;;;;;;7.73;2.43;;;4.20;99.90;;;;;;5065620;28;20451;-80
2022/01/06 00:12:18;;;;;;;15.63;4.03;;;4.10;99.90;;;;;;5062530;28;20445;-80
2022/01/06 00:14:58;;;;;;;10.33;3.10;;;4.10;99.90;;;;;;5076263;28;20560;-79
2022/01/06 00:17:39;;;;;;;18.67;3.13;;;4.10;99.90;;;;;;5079538;28;21922;-81
2022/01/06 00:23:23;;;;;;;9.20;3.23;;;4.00;99.90;;;;;;5070025;28;20467;-79
2022/01/06 00:25:52;;;;;;;16.03;3.47;;;3.90;99.90;;;;;;5061867;28;20448;-80
2022/01/06 00:28:20;;;;;;;13.03;4.20;;;3.90;99.90;;;;;;5063981;28;20492;-80
2022/01/06 00:30:47;;;;;;;13.83;2.77;;;3.90;99.90;;;;;;5080755;28;20451;-79
2022/01/06 00:33:14;;;;;;;8.63;2.50;;;3.90;99.90;;;;;;5074981;28;20452;-80
2022/01/06 00:35:41;;;;;;;12.83;2.90;;;4.00;99.90;;;;;;5073798;28;20838;-81
2022/01/06 00:38:08;;;;;;;16.20;3.97;;;4.00;99.90;;;;;;5074184;28;20471;-80
2022/01/06 00:40:36;;;;;;;20.03;4.10;;;4.10;99.90;;;;;;5075964;28;20435;-80
2022/01/06 00:43:06;;;;;;;17.13;3.53;;;4.10;99.90;;;;;;5068208;28;20511;-80
2022/01/06 00:45:35;;;;;;;16.67;3.97;;;4.10;99.90;;;;;;5081570;28;20451;-80
2022/01/06 00:48:03;;;;;;;13.20;3.50;;;4.00;99.90;;;;;;5067471;28;21042;-81
2022/01/06 00:50:30;;;;;;;16.13;3.97;;;4.00;99.90;;;;;;5069863;28;21015;-80
2022/01/06 00:52:57;;;;;;;10.57;2.80;;;3.90;99.90;;;;;;5065260;28;20456;-80
2022/01/06 00:55:24;;;;;;;18.10;3.20;;;4.00;99.90;;;;;;5065444;28;20483;-80
2022/01/06 00:57:55;;;;;;;11.93;2.70;;;3.90;99.90;;;;;;5064372;28;20474;-80
2022/01/06 01:00:27;;;;;;;21.40;4.47;;;3.90;99.90;;;;;;5064359;28;20534;-81
2022/01/06 01:02:54;;;;;;;13.73;3.93;;;3.80;99.90;;;;;;5066080;28;20479;-80
2022/01/06 01:05:21;;;;;;;14.23;3.37;;;3.80;99.90;;;;;;5079180;28;20432;-78
2022/01/06 01:07:47;;;;;;;16.80;3.33;;;3.70;99.90;;;;;;5069108;28;20478;-80
2022/01/06 01:10:15;;;;;;;11.43;3.90;;;3.60;99.90;;;;;;5064246;28;20449;-79
2022/01/06 01:12:46;;;;;;;13.20;3.60;;;3.60;99.90;;;;;;5068613;28;20507;-79
2022/01/06 01:15:19;;;;;;;13.90;3.97;;;3.60;99.90;;;;;;5069024;28;20486;-80
2022/01/06 01:17:48;;;;;;;18.53;3.30;;;3.50;99.90;;;;;;5065874;28;20534;-80
2022/01/06 01:20:16;;;;;;;15.83;3.47;;;3.60;99.90;;;;;;5078692;28;20447;-80
2022/01/06 01:22:43;;;;;;;12.40;4.17;;;3.50;99.90;;;;;;5082361;28;20464;-80
2022/01/06 01:25:10;;;;;;;20.47;4.07;;;3.50;99.90;;;;;;5062505;28;20459;-80
2022/01/06 01:27:40;;;;;;;11.60;3.83;;;3.40;99.90;;;;;;5063082;28;21017;-80
2022/01/06 01:30:11;;;;;;;13.03;4.07;;;3.40;99.90;;;;;;5075944;28;20448;-79
2022/01/06 01:32:39;;;;;;;15.00;3.10;;;3.40;99.90;;;;;;5066932;28;20819;-80
2022/01/06 01:35:10;;;;;;;28.30;6.00;;;3.40;99.90;;;;;;5061106;28;20487;-79
2022/01/06 01:37:38;;;;;;;13.10;4.27;;;3.30;99.90;;;;;;5060666;28;20901;-80
2022/01/06 01:40:08;;;;;;;16.60;4.43;;;3.30;99.90;;;;;;5072775;28;20443;-79
2022/01/06 01:42:35;;;;;;;13.30;3.00;;;3.30;99.90;;;;;;5060996;28;20452;-80
2022/01/06 01:45:04;;;;;;;18.07;3.93;;;3.40;99.90;;;;;;5061215;28;20458;-80
2022/01/06 01:47:37;;;;;;;20.13;3.50;;;3.50;99.90;;;;;;5079924;28;20489;-80
2022/01/06 01:50:12;;;;;;;17.67;3.30;;;3.70;99.90;;;;;;5075608;28;20523;-80
2022/01/06 01:52:42;;;;;;;12.97;3.67;;;3.80;99.90;;;;;;5081314;28;20523;-79
2022/01/06 01:55:10;;;;;;;10.87;3.17;;;3.80;99.90;;;;;;5068707;28;20503;-79
2022/01/06 01:57:37;;;;;;;18.57;4.27;;;3.90;99.90;;;;;;5080986;28;20536;-80
2022/01/06 02:00:06;;;;;;;14.70;3.40;;;4.00;99.90;;;;;;5066689;28;20462;-80
2022/01/06 02:02:33;;;;;;;11.67;3.20;;;4.00;99.90;;;;;;5073279;28;20459;-79
2022/01/06 02:05:00;;;;;;;9.30;2.90;;;4.00;99.90;;;;;;5078775;28;20450;-81
2022/01/06 02:07:27;;;;;;;11.53;3.87;;;4.10;99.90;;;;;;5060569;28;20923;-80
2022/01/06 02:09:55;;;;;;;14.73;3.53;;;4.10;99.90;;;;;;5065481;28;20465;-80
2022/01/06 02:12:24;;;;;;;14.93;3.90;;;4.00;99.90;;;;;;5071876;28;20464;-81
2022/01/06 02:14:51;;;;;;;18.63;3.80;;;3.90;99.90;;;;;;5061587;28;20480;-79
2022/01/06 02:17:18;;;;;;;25.17;4.33;;;3.90;99.90;;;;;;5067242;28;20483;-80
2022/01/06 02:19:54;;;;;;;13.40;3.47;;;3.70;99.90;;;;;;5070689;28;20484;-80
2022/01/06 02:22:21;;;;;;;18.20;3.33;;;3.60;99.90;;;;;;5079960;28;20970;-81
2022/01/06 02:24:47;;;;;;;10.50;3.50;;;3.60;99.90;;;;;;5082764;28;20447;-80
2022/01/06 02:27:14;;;;;;;11.63;3.70;;;3.60;99.90;;;;;;5079944;28;20522;-80
2022/01/06 02:29:42;;;;;;;18.80;4.90;;;3.60;99.90;;;;;;5065022;28;20543;-80
2022/01/06 02:32:10;;;;;;;12.13;3.30;;;3.60;99.90;;;;;;5061220;28;20456;-80
2022/01/06 02:34:37;;;;;;;10.63;3.00;;;3.60;99.90;;;;;;5070751;28;20532;-80
2022/01/06 02:37:05;;;;;;;20.47;4.27;;;3.60;99.90;;;;;;5082299;28;20451;-80
2022/01/06 02:39:32;;;;;;;23.47;4.80;;;3.70;99.90;;;;;;5072908;28;20452;-81
2022/01/06 02:41:59;;;;;;;20.50;4.47;;;3.80;99.90;;;;;;5061333;28;20462;-81
2022/01/06 02:44:26;;;;;;;13.50;3.30;;;3.80;99.90;;;;;;5061645;28;20448;-80
2022/01/06 02:46:54;;;;;;;15.87;2.60;;;3.90;99.90;;;;;;5061995;28;20452;-79
2022/01/06 02:49:21;;;;;;;16.07;3.10;;;3.90;99.90;;;;;;5069442;28;20481;-81
2022/01/06 02:51:48;;;;;;;11.13;3.10;;;4.00;99.90;;;;;;5065814;28;20466;-80
2022/01/06 02:54:16;;;;;;;18.07;4.40;;;4.10;99.90;;;;;;5062336;28;20453;-80
2022/01/06 02:56:43;;;;;;;7.87;2.80;;;4.10;99.90;;;;;;5077964;28;20447;-81
2022/01/06 02:59:10;;;;;;;18.23;3.40;;;4.10;99.90;;;;;;5076840;28;20468;-80
2022/01/06 03:01:41;;;;;;;16.43;2.80;;;4.10;99.90;;;;;;5061904;28;20456;-80
2022/01/06 03:04:09;;;;;;;11.47;2.97;;;4.10;99.90;;;;;;5063753;28;20461;-80
2022/01/06 03:06:36;;;;;;;15.60;3.90;;;4.20;99.90;;;;;;5065287;28;20534;-81
2022/01/06 03:09:03;;;;;;;16.60;2.90;;;4.20;99.90;;;;;;5065955;28;20475;-81
2022/01/06 03:11:33;;;;;;;17.63;5.60;;;4.30;99.90;;;;;;5085521;28;20533;-80
2022/01/06 03:14:00;;;;;;;13.37;4.37;;;4.30;99.90;;;;;;5083629;28;20447;-81
2022/01/06 03:16:27;;;;;;;12.00;3.30;;;4.20;99.90;;;;;;5085947;28;20503;-81
2022/01/06 03:18:54;;;;;;;18.10;3.87;;;4.10;99.90;;;;;;5082548;28;20849;-81
2022/01/06 03:21:20;;;;;;;12.67;3.00;;;4.00;99.90;;;;;;5083697;28;20498;-79
2022/01/06 03:23:47;;;;;;;11.60;3.20;;;3.90;99.90;;;;;;5082423;28;20451;-80
2022/01/06 03:26:14;;;;;;;9.30;2.80;;;3.80;99.90;;;;;;5062324;28;20552;-81
2022/01/06 03:28:42;;;;;;;13.70;3.83;;;3.70;99.90;;;;;;5072129;28;20476;-80
2022/01/06 03:31:09;;;;;;;16.53;3.60;;;3.60;99.90;;;;;;5082240;28;20454;-80
2022/01/06 03:33:36;;;;;;;12.83;3.80;;;3.50;99.90;;;;;;5084095;28;20485;-81
2022/01/06 03:36:03;;;;;;;14.47;2.90;;;3.50;99.90;;;;;;5083923;28;21038;-79
2022/01/06 03:38:30;;;;;;;10.37;2.73;;;3.40;99.90;;;;;;5082957;28;20474;-79
2022/01/06 03:40:57;;;;;;;15.23;2.80;;;3.30;99.90;;;;;;5075828;28;20457;-81
2022/01/06 03:43:23;;;;;;;14.90;3.20;;;3.20;99.90;;;;;;5082526;28;20946;-80
2022/01/06 03:45:51;;;;;;;11.43;3.10;;;3.20;99.90;;;;;;5062733;28;20438;-81
2022/01/06 03:48:18;;;;;;;18.57;5.13;;;3.10;99.90;;;;;;5071418;28;20475;-80
2022/01/06 03:50:45;;;;;;;9.00;2.40;;;3.10;99.90;;;;;;5064644;28;20451;-80
2022/01/06 03:53:12;;;;;;;12.73;2.90;;;3.10;99.90;;;;;;5077513;28;20451;-80
2022/01/06 03:55:39;;;;;;;11.93;3.70;;;3.00;99.90;;;;;;5064100;28;20483;-80
2022/01/06 03:58:09;;;;;;;15.53;3.27;;;3.00;99.90;;;;;;5073954;28;20483;-79
2022/01/06 04:00:37;;;;;;;13.30;2.87;;;2.90;99.90;;;;;;5065389;28;20456;-80
2022/01/06 04:03:05;;;;;;;13.43;2.83;;;2.80;99.90;;;;;;5077929;28;20538;-80
2022/01/06 04:05:33;;;;;;;11.73;3.07;;;2.80;99.90;;;;;;5076563;28;20518;-79
2022/01/06 04:08:00;;;;;;;7.00;2.33;;;2.80;99.90;;;;;;5075893;28;20477;-81
2022/01/06 04:10:27;;;;;;;12.43;3.00;;;2.70;99.90;;;;;;5079888;28;20454;-78
2022/01/06 04:12:54;;;;;;;9.80;2.50;;;2.70;99.90;;;;;;5082303;28;20530;-79
2022/01/06 04:15:23;;;;;;;8.63;3.30;;;2.70;99.90;;;;;;5067451;28;20475;-80
2022/01/06 04:17:50;;;;;;;8.30;3.10;;;2.60;99.90;;;;;;5075904;28;20476;-80
2022/01/06 04:20:18;;;;;;;9.67;2.90;;;2.50;99.90;;;;;;5072445;28;20459;-79
2022/01/06 04:22:45;;;;;;;7.00;2.97;;;2.50;99.90;;;;;;5068632;28;20464;-79
2022/01/06 04:25:12;;;;;;;10.03;3.13;;;2.40;99.90;;;;;;5061733;28;20955;-81
2022/01/06 04:27:39;;;;;;;15.30;3.47;;;2.40;99.90;;;;;;5061512;28;20472;-80
2022/01/06 04:30:07;;;;;;;7.28;2.40;;;2.30;99.90;;;;;;5071395;28;20447;-81
2022/01/06 04:32:35;;;;;;;16.67;3.22;;;2.30;99.90;;;;;;5077459;28;20670;-80
2022/01/06 04:35:02;;;;;;;10.00;2.72;;;2.30;99.90;;;;;;5061502;28;20217;-80
2022/01/06 04:37:30;;;;;;;15.90;3.20;;;2.20;99.90;;;;;;5080412;28;20227;-79
2022/01/06 04:39:57;;;;;;;13.25;3.75;;;2.20;99.90;;;;;;5071443;28;20463;-80
2022/01/06 04:42:23;;;;;;;8.23;3.37;;;2.20;99.90;;;;;;5067620;28;20587;-79
2022/01/06 04:44:50;;;;;;;16.03;3.20;;;2.20;99.90;;;;;;5062221;28;20470;-81
2022/01/06 04:47:17;;;;;;;10.23;2.73;;;2.10;99.90;;;;;;5079609;28;20454;-82
2022/01/06 04:49:44;;;;;;;10.93;2.70;;;2.10;99.90;;;;;;5074299;28;20474;-81
2022/01/06 04:52:10;;;;;;;5.63;3.60;;;2.10;99.90;;;;;;5075651;28;20542;-81
2022/01/06 04:54:39;;;;;;;15.30;3.10;;;2.10;99.90;;;;;;5098243;28;20452;-79
2022/01/06 04:57:06;;;;;;;13.63;3.65;;;2.20;99.90;;;;;;5084738;28;20459;-80
2022/01/06 04:59:32;;;;;;;11.50;3.43;;;2.20;99.90;;;;;;5068448;28;20200;-79
2022/01/06 05:01:59;;;;;;;10.43;2.90;;;2.20;99.90;;;;;;5072865;28;20507;-80
2022/01/06 05:04:26;;;;;;;12.97;4.33;;;2.10;99.90;;;;;;5062738;28;20551;-80
2022/01/06 05:06:53;;;;;;;20.60;3.50;;;2.10;99.90;;;;;;5062552;28;20448;-80
2022/01/06 05:09:20;;;;;;;14.77;3.07;;;2.00;99.90;;;;;;5066523;28;20471;-80
2022/01/06 05:11:48;;;;;;;11.70;3.50;;;2.00;99.90;;;;;;5063548;28;20906;-80
2022/01/06 05:14:15;;;;;;;13.20;2.97;;;1.90;99.90;;;;;;5073950;28;20451;-80
2022/01/06 05:16:42;;;;;;;10.40;3.10;;;1.90;99.90;;;;;;5078772;28;20497;-81
2022/01/06 05:19:09;;;;;;;9.13;2.55;;;1.90;99.90;;;;;;5082165;28;20513;-80
2022/01/06 05:21:36;;;;;;;17.10;3.57;;;1.80;99.90;;;;;;5070022;28;20197;-80
2022/01/06 05:24:10;;;;;;;22.50;3.67;;;1.80;99.90;;;;;;5063671;28;20451;-80
2022/01/06 05:26:38;;;;;;;18.60;3.70;;;1.70;99.90;;;;;;5061037;28;20892;-80
2022/01/06 05:29:07;;;;;;;17.67;3.80;;;1.60;99.90;;;;;;5063888;28;20216;-81
2022/01/06 05:31:33;;;;;;;10.40;3.63;;;1.60;99.90;;;;;;5079562;28;20223;-80
2022/01/06 05:34:00;;;;;;;16.20;4.10;;;1.50;99.90;;;;;;5080301;28;20243;-80
2022/01/06 05:36:27;;;;;;;11.38;3.00;;;1.50;99.90;;;;;;5060775;28;20316;-80
2022/01/06 05:38:54;;;;;;;10.60;2.90;;;1.50;99.90;;;;;;5065636;28;20238;-78
2022/01/06 05:41:21;;;;;;;15.60;3.20;;;1.50;99.90;;;;;;5056753;28;20452;-79
2022/01/06 05:43:48;;;;;;;12.82;3.67;;;1.50;99.90;;;;;;5061533;28;21006;-80
2022/01/06 05:46:17;;;;;;;10.45;2.60;;;1.50;99.90;;;;;;5058639;28;20209;-79
2022/01/06 05:48:44;;;;;;;8.82;2.58;;;1.50;99.90;;;;;;5063773;28;20225;-80
2022/01/06 05:51:11;;;;;;;12.80;3.53;;;1.40;99.90;;;;;;5073428;28;20485;-80
2022/01/06 05:53:38;;;;;;;19.23;3.27;;;1.40;99.90;;;;;;5059997;28;20276;-80
2022/01/06 05:56:05;;;;;;;9.30;2.83;;;1.40;99.90;;;;;;5077792;28;20489;-78
2022/01/06 05:58:32;;;;;;;9.13;3.05;;;1.50;99.90;;;;;;5074288;28;20221;-81
2022/01/06 06:00:59;;;;;;;9.70;3.38;;;1.60;99.90;;;;;;5065497;28;20282;-80
2022/01/06 06:03:28;;;;;;;7.07;2.75;;;1.70;99.90;;;;;;5057826;28;20677;-80
2022/01/06 06:05:54;;;;;;;11.10;3.05;;;1.80;99.90;;;;;;5077520;28;20654;-81
2022/01/06 06:08:21;;;;;;;14.77;3.85;;;1.90;99.90;;;;;;5077878;28;20230;-81
2022/01/06 06:10:48;;;;;;;9.30;3.72;;;2.10;99.90;;;;;;5062831;28;20226;-80
2022/01/06 06:13:15;;;;;;;10.65;2.75;;;2.10;99.90;;;;;;5076773;28;20610;-80
2022/01/06 06:15:42;;;;;;;5.20;2.27;;;2.20;99.90;;;;;;5072345;28;20221;-80
2022/01/06 06:18:12;;;;;;;10.45;3.72;;;2.20;99.90;;;;;;5072398;28;20470;-81
2022/01/06 06:20:40;;;;;;;10.80;2.90;;;2.20;99.90;;;;;;5057966;28;20201;-80
2022/01/06 06:23:08;;;;;;;12.00;3.37;;;2.20;99.90;;;;;;5074452;28;20476;-80
2022/01/06 06:25:35;;;;;;;11.77;2.60;;;2.10;99.90;;;;;;5076959;28;20458;-80
2022/01/06 06:28:02;;;;;;;7.83;3.10;;;2.10;99.90;;;;;;5061850;28;20476;-79
2022/01/06 06:30:29;;;;;;;11.30;3.67;;;2.00;99.90;;;;;;5073771;28;20473;-80
2022/01/06 06:32:56;;;;;;;9.00;3.53;;;1.90;99.90;;;;;;5076814;28;20449;-81
2022/01/06 06:35:23;;;;;;;8.43;3.67;;;1.90;99.90;;;;;;5062197;28;20470;-81
2022/01/06 06:37:51;;;;;;;9.68;3.20;;;1.80;99.90;;;;;;5059507;28;20554;-81
2022/01/06 06:40:19;;;;;;;12.68;3.70;;;1.80;99.90;;;;;;5069947;28;20546;-80
2022/01/06 06:42:45;;;;;;;12.20;3.83;;;1.80;99.90;;;;;;5062424;28;20233;-80
2022/01/06 06:45:12;;;;;;;10.33;3.80;;;1.80;99.90;;;;;;5066119;28;20456;-81
2022/01/06 06:47:39;;;;;;;8.97;4.00;;;1.80;99.90;;;;;;5062002;28;20585;-80
2022/01/06 06:50:07;;;;;;;6.07;3.00;;;1.90;99.90;;;;;;5076097;28;20473;-82
2022/01/06 06:52:34;;;;;;;15.63;4.43;;;1.80;99.90;;;;;;5073608;28;20512;-82
2022/01/06 06:55:03;;;;;;;8.93;3.10;;;1.90;99.90;;;;;;5067457;28;20459;-81
2022/01/06 06:57:30;;;;;;;16.30;3.67;;;2.00;99.90;;;;;;5060388;28;20529;-82
2022/01/06 07:00:02;;;;;;;13.63;3.70;;;2.00;99.90;;;;;;5063769;28;20455;-80
2022/01/06 07:02:29;;;;;;;14.13;4.07;;;2.10;99.90;;;;;;5060503;28;20491;-81
2022/01/06 07:04:56;;;;;;;11.10;3.70;;;2.10;99.90;;;;;;5075643;28;20208;-81
2022/01/06 07:07:22;;;;;;;13.18;4.32;;;2.10;99.90;;;;;;5077210;28;20951;-81
2022/01/06 07:09:50;;;;;;;10.53;2.93;;;2.10;99.90;;;;;;5062902;28;20212;-83
2022/01/06 07:12:18;;;;;;;12.63;3.40;;;2.10;99.90;;;;;;5071505;28;20455;-81
2022/01/06 07:14:45;;;;;;;11.60;3.30;;;2.10;99.90;;;;;;5076972;28;20984;-82
2022/01/06 07:17:12;;;;;;;8.30;3.20;;;2.10;99.90;;;;;;5074069;28;20478;-81
2022/01/06 07:19:39;;;;;;;10.52;3.78;;;2.10;99.90;;;;;;5071026;28;20534;-82
2022/01/06 07:22:06;;;;;;;8.45;4.18;;;2.10;99.90;;;;;;5076529;28;20201;-80
2022/01/06 07:24:33;;;;;;;17.13;3.50;;;2.20;99.90;;;;;;5075926;28;20224;-82
2022/01/06 07:27:00;;;;;;;12.52;4.63;;;2.20;99.90;;;;;;5071272;28;20546;-83
2022/01/06 07:29:28;;;;;;;14.47;4.60;;;2.20;99.90;;;;;;5068232;28;20228;-81
2022/01/06 07:31:55;;;;;;;14.00;3.60;;;2.20;99.90;;;;;;5068312;28;20930;-80
2022/01/06 07:34:22;;;;;;;13.83;3.13;;;2.30;99.90;;;;;;5068491;28;20452;-82
2022/01/06 07:36:49;;;;;;;13.00;3.50;;;2.30;99.90;;;;;;5074657;28;20475;-82
2022/01/06 07:39:16;;;;;;;12.60;3.60;;;2.40;99.90;;;;;;5072144;28;20491;-82
2022/01/06 07:41:43;;;;;;;9.77;3.30;;;2.40;99.90;;;;;;5065756;28;20461;-81
2022/01/06 07:44:10;;;;;;;22.27;5.00;;;2.30;99.90;;;;;;5071276;28;20699;-82
2022/01/06 07:46:40;;;;;;;20.00;4.70;;;2.40;99.90;;;;;;5069144;28;20444;-81
2022/01/06 07:49:07;;;;;;;11.55;3.90;;;2.40;99.90;;;;;;5070184;28;20855;-82
2022/01/06 07:51:34;;;;;;;10.67;3.70;;;2.40;99.90;;;;;;5079594;28;20197;-82
2022/01/06 07:54:01;;;;;;;14.00;6.20;;;2.30;99.90;;;;;;5075934;28;20459;-80
2022/01/06 07:56:28;;;;;;;15.30;3.50;;;2.30;99.90;;;;;;5067564;28;20496;-81
2022/01/06 07:58:55;;;;;;;12.20;3.93;;;2.20;99.90;;;;;;5078133;28;20478;-80
2022/01/06 08:01:22;;;;;;;11.67;4.40;;;2.10;99.90;;;;;;5076949;28;20463;-81
2022/01/06 08:03:51;;;;;;;9.80;4.13;;;2.10;99.90;;;;;;5059651;28;20871;-81
2022/01/06 08:06:18;;;;;;;19.60;4.77;;;2.10;99.90;;;;;;5067907;28;20455;-81
2022/01/06 08:08:45;;;;;;;8.73;3.70;;;2.10;99.90;;;;;;5073967;28;20486;-82
2022/01/06 08:11:13;;;;;;;9.53;3.87;;;2.20;99.90;;;;;;5077793;28;21123;-80
2022/01/06 08:13:40;;;;;;;10.10;4.10;;;2.20;99.90;;;;;;5076419;28;20450;-80
2022/01/06 08:16:07;;;;;;;11.53;5.40;;;2.20;99.90;;;;;;5071021;28;20504;-81
2022/01/06 08:18:34;;;;;;;11.13;3.83;;;2.10;99.90;;;;;;5072915;28;20809;-81
2022/01/06 08:21:02;;;;;;;9.63;3.93;;;2.10;99.90;;;;;;5068415;28;20458;-81
2022/01/06 08:23:29;;;;;;;10.73;4.50;;;2.00;99.90;;;;;;5067908;28;20455;-81
2022/01/06 08:25:57;;;;;;;13.20;3.70;;;2.00;99.90;;;;;;5059446;28;20444;-82
2022/01/06 08:28:24;;;;;;;14.70;4.60;;;2.00;99.90;;;;;;5058623;28;20894;-81
2022/01/06 08:30:51;;;;;;;12.20;3.67;;;2.00;99.90;;;;;;5058131;28;20215;-81
2022/01/06 08:33:18;;;;;;;14.13;4.90;;;2.00;99.90;;;;;;5059330;28;20480;-79
2022/01/06 08:35:45;;;;;;;17.07;3.90;;;2.00;99.90;;;;;;5057754;28;20534;-81
2022/01/06 08:38:13;;;;;;;9.60;3.53;;;2.10;99.90;;;;;;5058423;28;20464;-80
2022/01/06 08:40:40;;;;;;;8.43;3.73;;;2.10;99.90;;;;;;5074402;28;20447;-82
2022/01/06 08:43:06;;;;;;;10.67;3.70;;;2.10;99.90;;;;;;5078559;28;21141;-81
2022/01/06 08:45:33;;;;;;;10.80;4.40;;;2.20;99.90;;;;;;5078097;28;20534;-81
2022/01/06 08:48:01;;;;;;;11.37;4.00;;;2.20;99.90;;;;;;5078004;28;20459;-81
2022/01/06 08:50:28;;;;;;;17.83;4.83;;;2.30;99.90;;;;;;5074310;28;20538;-80
2022/01/06 08:52:56;;;;;;;20.17;6.53;;;2.40;99.90;;;;;;5073541;28;20458;-81
2022/01/06 08:55:26;;;;;;;21.33;5.10;;;2.40;99.90;;;;;;5062826;28;20443;-80
2022/01/06 08:57:53;;;;;;;11.57;5.27;;;2.50;99.90;;;;;;5077623;28;21064;-80
2022/01/06 09:00:20;;;;;;;15.68;5.43;;;2.60;99.90;;;;;;5075990;28;21027;-80
2022/01/06 09:02:47;;;;;;;15.60;4.73;;;2.70;99.90;;;;;;5077670;28;20228;-82
2022/01/06 09:05:14;;;;;;;18.77;5.63;;;2.70;99.90;;;;;;5077582;28;20462;-80
2022/01/06 09:07:42;;;;;;;13.33;4.60;;;2.70;99.90;;;;;;5071153;28;20471;-81
2022/01/06 09:10:09;;;;;;;12.13;4.33;;;2.80;99.90;;;;;;5060553;28;20952;-81
2022/01/06 09:12:38;;;;;;;16.60;4.60;;;2.80;99.90;;;;;;5059286;28;20467;-81
2022/01/06 09:15:10;;;;;;;10.73;4.27;;;2.90;99.90;;;;;;5072319;28;20452;-81
2022/01/06 09:17:38;;;;;;;17.07;5.37;;;2.90;99.90;;;;;;5076289;28;20478;-82
2022/01/06 09:20:07;;;;;;;20.50;6.37;;;3.00;99.90;;;;;;5071658;28;20461;-81
2022/01/06 09:22:34;;;;;;;15.77;4.77;;;3.00;99.90;;;;;;5075620;28;20466;-79
2022/01/06 09:25:00;;;;;;;10.37;4.10;;;3.10;99.90;;;;;;5066615;28;20444;-81
2022/01/06 09:27:29;;;;;;;16.13;5.37;;;3.20;99.90;;;;;;5061611;28;20452;-80
2022/01/06 09:29:58;;;;;;;11.17;4.20;;;3.20;99.90;;;;;;5062315;28;20452;-82
2022/01/06 09:32:25;;;;;;;8.07;5.33;;;3.20;99.90;;;;;;5067014;28;20452;-82
2022/01/06 09:34:52;;;;;;;18.73;5.27;;;3.30;99.90;;;;;;5062695;28;20460;-81
2022/01/06 09:37:19;;;;;;;15.73;5.90;;;3.30;99.90;;;;;;5056714;28;20555;-81
2022/01/06 09:39:47;;;;;;;19.80;6.47;;;3.30;99.90;;;;;;5057758;28;20464;-82
2022/01/06 09:42:16;;;;;;;16.17;5.27;;;3.30;99.90;;;;;;5066786;28;20483;-81
2022/01/06 09:44:44;;;;;;;16.30;5.50;;;3.30;99.90;;;;;;5061840;28;20456;-82
2022/01/06 09:47:15;;;;;;;16.77;6.10;;;3.40;99.90;;;;;;5070271;28;20440;-83
2022/01/06 09:49:46;;;;;;;14.10;4.70;;;3.40;99.90;;;;;;5073689;28;20617;-81
2022/01/06 09:52:19;;;;;;;11.70;5.00;;;3.50;99.90;;;;;;5073151;28;20451;-81
2022/01/06 09:54:49;;;;;;;17.70;5.30;;;3.50;99.90;;;;;;5064385;28;20832;-82
2022/01/06 09:57:16;;;;;;;18.30;5.37;;;3.60;99.90;;;;;;5067415;28;20498;-82
2022/01/06 09:59:44;;;;;;;20.93;6.00;;;3.70;99.90;;;;;;5075706;28;20488;-81
2022/01/06 10:02:16;;;;;;;14.80;5.23;;;3.70;99.90;;;;;;5070367;28;20824;-81
2022/01/06 10:04:44;;;;;;;10.63;5.57;;;3.70;99.90;;;;;;5068546;28;20472;-80
2022/01/06 10:07:11;;;;;;;15.47;7.00;;;3.80;99.90;;;;;;5067480;28;20452;-80
2022/01/06 10:09:41;;;;;;;18.97;5.80;;;3.80;99.90;;;;;;5066586;28;20448;-81
2022/01/06 10:12:11;;;;;;;14.17;6.30;;;3.80;99.90;;;;;;5064229;28;20498;-81
2022/01/06 10:14:42;;;;;;;19.57;6.80;;;3.90;99.90;;;;;;5061149;28;20464;-80
2022/01/06 10:17:10;;;;;;;19.13;5.57;;;3.90;99.90;;;;;;5063826;28;20492;-80
2022/01/06 10:19:41;;;;;;;19.27;6.67;;;3.90;99.90;;;;;;5064525;28;20469;-80
2022/01/06 10:22:15;;;;;;;16.67;6.10;;;4.00;99.90;;;;;;5072395;28;21008;-82
2022/01/06 10:24:44;;;;;;;22.53;5.23;;;4.10;99.90;;;;;;5064201;28;20445;-80
2022/01/06 10:27:12;;;;;;;15.10;5.27;;;4.20;99.90;;;;;;5064651;28;20520;-81
2022/01/06 10:29:41;;;;;;;16.63;5.93;;;4.20;99.90;;;;;;5073706;28;20851;-79
2022/01/06 10:32:10;;;;;;;14.50;7.30;;;4.30;99.90;;;;;;5066851;28;20542;-81
2022/01/06 10:34:40;;;;;;;19.50;5.53;;;4.40;99.90;;;;;;5071434;28;20460;-81
2022/01/06 10:37:18;;;;;;;14.03;5.27;;;4.50;99.90;;;;;;5066358;28;20510;-81
2022/01/06 10:39:46;;;;;;;20.73;5.37;;;4.50;99.90;;;;;;5073638;28;20527;-81
2022/01/06 10:42:13;;;;;;;16.73;5.80;;;4.60;99.90;;;;;;5063424;28;21016;-81
2022/01/06 10:44:48;;;;;;;13.23;5.33;;;4.70;99.90;;;;;;5072263;28;20456;-81
2022/01/06 10:47:15;;;;;;;22.37;5.87;;;4.90;99.90;;;;;;5067460;28;20833;-82
2022/01/06 10:49:43;;;;;;;16.70;6.30;;;4.90;99.90;;;;;;5075179;28;20460;-82
2022/01/06 10:52:10;;;;;;;13.53;5.43;;;4.90;99.90;;;;;;5065209;28;20460;-82
2022/01/06 10:54:38;;;;;;;11.93;5.60;;;5.20;99.90;;;;;;5073256;28;20457;-82
2022/01/06 10:57:07;;;;;;;15.43;5.33;;;5.40;99.90;;;;;;5067238;28;20481;-82
2022/01/06 10:59:36;;;;;;;14.30;4.37;;;5.60;99.90;;;;;;5068088;28;20479;-82
2022/01/06 11:02:04;;;;;;;11.63;4.73;;;5.70;99.90;;;;;;5074532;28;20454;-82
2022/01/06 11:04:31;;;;;;;15.13;5.43;;;5.70;99.90;;;;;;5071745;28;20465;-82
2022/01/06 11:06:59;;;;;;;8.67;4.33;;;5.70;99.90;;;;;;5066258;28;20453;-82
2022/01/06 11:09:29;;;;;;;12.93;4.00;;;5.70;99.90;;;;;;5065922;28;20489;-82
2022/01/06 11:14:44;;;;;;;17.93;4.87;;;5.90;99.90;;;;;;5064658;28;20497;-82
2022/01/06 11:17:11;;;;;;;15.60;5.00;;;6.00;99.90;;;;;;5073877;28;20497;-82
2022/01/06 11:19:39;;;;;;;19.23;5.17;;;6.10;99.90;;;;;;5073060;28;20460;-82
2022/01/06 11:22:09;;;;;;;13.40;5.23;;;6.10;99.90;;;;;;5074547;28;20829;-83
2022/01/06 11:24:38;;;;;;;13.67;5.77;;;6.40;99.90;;;;;;5080388;28;20414;-82
2022/01/06 11:27:08;;;;;;;19.90;5.00;;;6.50;99.90;;;;;;5069219;28;20488;-82
2022/01/06 11:29:38;;;;;;;17.30;6.17;;;6.60;99.90;;;;;;5060450;28;20537;-82
2022/01/06 11:32:17;;;;;;;3.93;1.73;;;7.20;99.90;;;;;;5065362;28;20490;-80
2022/01/06 11:34:44;;;;;;;9.03;2.90;;;9.20;99.90;;;;;;5068452;28;20446;-81
2022/01/06 11:37:14;;;;;;;14.60;4.67;;;11.90;99.90;;;;;;5070776;28;20564;-82
2022/01/06 11:39:42;;;;;;;14.43;5.30;;;13.50;99.90;;;;;;5064088;28;20444;-81
2022/01/06 11:42:16;;;;;;;7.50;3.43;;;13.00;99.90;;;;;;5062765;28;20550;-81
2022/01/06 11:44:51;;;;;;;16.73;4.30;;;14.20;99.90;;;;;;5070473;28;20454;-81
2022/01/06 11:47:30;;;;;;;11.23;3.83;;;14.00;99.90;;;;;;5074649;28;20457;-80
2022/01/06 11:50:08;;;;;;;8.40;3.43;;;13.30;99.90;;;;;;5081578;28;20454;-82
2022/01/06 11:52:37;;;;;;;18.00;4.63;;;12.90;99.90;;;;;;5072070;28;20450;-81
2022/01/06 11:55:14;;;;;;;15.70;4.37;;;12.50;99.90;;;;;;5067072;28;20463;-79
2022/01/06 11:57:41;;;;;;;15.00;4.77;;;11.80;99.90;;;;;;5063584;28;20832;-81
2022/01/06 12:00:16;;;;;;;25.23;4.30;;;11.00;99.90;;;;;;5083491;28;20560;-81
2022/01/06 12:02:45;;;;;;;9.27;3.63;;;10.60;99.90;;;;;;5076518;28;20428;-79
2022/01/06 12:05:13;;;;;;;15.90;4.50;;;10.60;99.90;;;;;;5076196;28;20436;-81
2022/01/06 12:07:51;;;;;;;14.70;4.40;;;11.80;99.90;;;;;;5067880;28;20462;-80
2022/01/06 12:10:21;;;;;;;15.70;6.03;;;13.60;99.90;;;;;;5071693;28;20988;-82
2022/01/06 12:12:50;;;;;;;18.77;4.57;;;13.80;99.90;;;;;;5069588;28;20549;-82
2022/01/06 12:15:19;;;;;;;10.17;4.17;;;14.70;99.90;;;;;;5067799;28;20447;-81
2022/01/06 12:17:48;;;;;;;9.17;4.43;;;15.70;99.90;;;;;;5072799;28;20489;-82
2022/01/06 12:20:21;;;;;;;9.80;4.90;;;16.70;99.90;;;;;;5069366;28;20459;-79
2022/01/06 12:22:50;;;;;;;13.50;5.30;;;14.30;99.90;;;;;;5068521;28;20500;-81
2022/01/06 12:25:16;;;;;;;12.33;5.60;;;13.30;99.90;;;;;;5067505;28;20513;-81
2022/01/06 12:27:48;;;;;;;19.13;7.47;;;11.70;99.90;;;;;;5070785;28;20462;-80
2022/01/06 12:30:17;;;;;;;12.77;6.73;;;10.20;99.90;;;;;;5069162;28;20451;-80
2022/01/06 12:32:55;;;;;;;15.90;7.70;;;9.50;99.90;;;;;;5084211;28;20506;-81
2022/01/06 12:35:22;;;;;;;21.57;9.40;;;8.80;99.90;;;;;;5083599;28;20448;-80
2022/01/06 12:37:59;;;;;;;19.43;10.27;;;8.80;99.90;;;;;;5074339;28;20486;-82
2022/01/06 12:40:33;;;;;;;20.03;9.10;;;8.30;99.90;;;;;;5058683;28;20451;-81
2022/01/06 12:43:00;;;;;;;20.17;10.70;;;8.20;99.90;;;;;;5068930;28;20434;-81
2022/01/06 12:45:26;;;;;;;21.03;11.23;;;8.10;99.90;;;;;;5067158;28;20520;-80
2022/01/06 12:47:54;;;;;;;18.50;11.33;;;8.00;99.90;;;;;;5068223;28;20475;-81
2022/01/06 12:50:21;;;;;;;23.53;13.40;;;7.50;99.90;;;;;;5061427;28;20443;-80
2022/01/06 12:52:49;;;;;;;23.07;10.97;;;7.30;99.90;;;;;;5058374;28;20454;-81
2022/01/06 12:55:18;;;;;;;23.73;14.40;;;7.80;99.90;;;;;;5060934;28;20433;-80
2022/01/06 12:57:51;;;;;;;23.07;15.30;;;7.90;99.90;;;;;;5072529;28;20999;-81
2022/01/06 13:00:19;;;;;;;25.27;14.40;;;7.80;99.90;;;;;;5075500;28;20444;-80